Time;durP1;ratioP1;P1;durP2;ratioP2;P2;SDS_P1;SDS_P2;PMS_P1;PMS_P2;Temp;Humidity;BMP_temperature;BMP_pressure;BME280_temperature;BME280_humidity;BME280_pressure;Samples;Min_cycle;Max_cycle;Signal;HPM_P1;HPM_P2
2021/08/08 00:00:57;;;;;;;4.25;0.60;;;21.00;69.00;;;;;;5075897;28;20043;-73
2021/08/08 00:03:22;;;;;;;1.77;0.75;;;21.00;69.00;;;;;;5075944;28;20040;-73
2021/08/08 00:05:48;;;;;;;3.45;0.60;;;21.00;69.10;;;;;;5076046;28;20365;-73
2021/08/08 00:08:14;;;;;;;2.25;0.57;;;21.00;69.10;;;;;;5076092;28;20048;-73
2021/08/08 00:10:41;;;;;;;2.45;0.55;;;21.00;69.10;;;;;;5076128;28;20037;-72
2021/08/08 00:13:07;;;;;;;2.90;0.52;;;21.00;69.10;;;;;;5075890;28;20044;-73
2021/08/08 00:15:34;;;;;;;1.67;0.52;;;21.00;69.10;;;;;;5075947;28;20440;-73
2021/08/08 00:18:03;;;;;;;1.73;0.65;;;21.00;69.10;;;;;;5075804;28;20037;-73
2021/08/08 00:20:29;;;;;;;4.13;0.75;;;21.00;69.20;;;;;;5075626;28;20115;-73
2021/08/08 00:22:55;;;;;;;4.25;0.52;;;21.00;69.20;;;;;;5075667;28;20436;-73
2021/08/08 00:25:21;;;;;;;3.60;1.00;;;21.00;69.10;;;;;;5075670;28;20044;-73
2021/08/08 00:27:48;;;;;;;2.75;0.90;;;21.00;69.20;;;;;;5075454;28;20062;-73
2021/08/08 00:30:14;;;;;;;3.15;0.90;;;21.10;69.20;;;;;;5075562;28;20040;-72
2021/08/08 00:32:40;;;;;;;4.35;0.80;;;21.00;69.20;;;;;;5075594;28;20113;-71
2021/08/08 00:35:08;;;;;;;3.75;0.90;;;21.10;69.20;;;;;;5075791;28;20048;-74
2021/08/08 00:37:34;;;;;;;2.08;0.50;;;21.00;69.20;;;;;;5076025;28;20036;-73
2021/08/08 00:40:01;;;;;;;4.30;1.00;;;21.00;69.20;;;;;;5075871;28;20041;-73
2021/08/08 00:42:27;;;;;;;12.68;0.90;;;21.00;69.20;;;;;;5076041;28;20044;-72
2021/08/08 00:44:53;;;;;;;6.35;0.77;;;21.00;69.30;;;;;;5075114;28;20452;-73
2021/08/08 00:47:20;;;;;;;2.53;0.55;;;21.00;69.30;;;;;;5075396;28;20043;-73
2021/08/08 00:49:46;;;;;;;4.45;0.88;;;21.00;69.30;;;;;;5075200;28;20115;-73
2021/08/08 00:52:11;;;;;;;4.28;0.90;;;21.00;69.40;;;;;;5074984;28;20051;-73
2021/08/08 00:54:37;;;;;;;2.88;0.70;;;21.00;69.50;;;;;;5075810;28;20131;-73
2021/08/08 00:57:04;;;;;;;4.93;0.73;;;21.00;69.50;;;;;;5075336;28;20040;-73
2021/08/08 00:59:30;;;;;;;5.80;0.80;;;21.00;69.50;;;;;;5074234;28;20411;-72
2021/08/08 01:01:56;;;;;;;4.50;0.70;;;21.00;69.50;;;;;;5075060;28;20135;-73
2021/08/08 01:04:33;;;;;;;3.05;0.65;;;21.00;69.40;;;;;;5074901;28;20045;-72
2021/08/08 01:07:00;;;;;;;4.35;0.80;;;21.00;69.30;;;;;;5075494;28;20119;-72
2021/08/08 01:09:27;;;;;;;1.27;0.57;;;21.00;69.30;;;;;;5075215;28;20040;-72
2021/08/08 01:11:53;;;;;;;3.50;0.68;;;21.00;69.30;;;;;;5075629;28;20048;-72
2021/08/08 01:14:20;;;;;;;2.58;0.43;;;21.00;69.20;;;;;;5075396;28;20036;-73
2021/08/08 01:16:49;;;;;;;2.80;0.68;;;21.00;69.20;;;;;;5074673;28;20044;-73
2021/08/08 01:19:18;;;;;;;1.73;0.60;;;21.00;69.30;;;;;;5075427;28;20052;-73
2021/08/08 01:21:46;;;;;;;3.58;0.68;;;21.00;69.20;;;;;;5075143;28;20109;-73
2021/08/08 01:24:12;;;;;;;2.15;0.63;;;21.00;69.20;;;;;;5075598;28;20052;-73
2021/08/08 01:26:42;;;;;;;0.70;0.52;;;21.00;69.20;;;;;;5075060;28;20071;-73
2021/08/08 01:29:08;;;;;;;2.13;0.70;;;21.00;69.20;;;;;;5074799;28;20109;-73
2021/08/08 01:31:34;;;;;;;2.55;0.60;;;21.00;69.20;;;;;;5075140;28;20440;-73
2021/08/08 01:34:00;;;;;;;3.85;0.70;;;21.00;69.40;;;;;;5074691;28;20094;-73
2021/08/08 01:36:25;;;;;;;1.70;0.60;;;21.00;69.20;;;;;;5075106;28;20043;-73
2021/08/08 01:38:58;;;;;;;2.70;0.40;;;21.00;69.20;;;;;;5074741;28;20116;-73
2021/08/08 01:41:28;;;;;;;3.20;0.70;;;21.00;69.20;;;;;;5074605;28;20045;-73
2021/08/08 01:43:55;;;;;;;3.33;0.63;;;21.00;69.20;;;;;;5074697;28;20043;-72
2021/08/08 01:46:23;;;;;;;2.22;0.60;;;21.00;69.20;;;;;;5074403;28;20058;-72
2021/08/08 01:48:52;;;;;;;2.60;0.57;;;21.00;69.20;;;;;;5075460;28;20048;-73
2021/08/08 01:51:19;;;;;;;2.40;0.60;;;21.00;69.20;;;;;;5074597;28;20068;-73
2021/08/08 01:53:45;;;;;;;4.50;0.60;;;21.00;69.20;;;;;;5074619;28;20075;-73
2021/08/08 01:56:12;;;;;;;3.78;0.77;;;20.90;69.20;;;;;;5074629;28;20359;-72
2021/08/08 01:58:39;;;;;;;2.08;0.60;;;20.90;69.10;;;;;;5074157;28;20059;-72
2021/08/08 02:01:05;;;;;;;1.63;0.55;;;20.90;69.20;;;;;;5074718;28;20064;-72
2021/08/08 02:03:38;;;;;;;2.13;0.63;;;20.90;69.10;;;;;;5074919;28;20411;-72
2021/08/08 02:06:10;;;;;;;1.58;0.60;;;21.00;69.20;;;;;;5074534;28;20040;-72
2021/08/08 02:08:37;;;;;;;4.07;0.70;;;20.90;69.20;;;;;;5075101;28;20067;-73
2021/08/08 02:11:03;;;;;;;2.15;0.60;;;20.90;69.20;;;;;;5075869;28;20792;-73
2021/08/08 02:13:30;;;;;;;2.35;0.85;;;20.90;69.20;;;;;;5078777;28;20432;-73
2021/08/08 02:15:56;;;;;;;3.22;0.60;;;20.90;69.20;;;;;;5078008;28;20428;-72
2021/08/08 02:18:22;;;;;;;2.63;0.43;;;20.90;69.20;;;;;;5078425;28;20037;-72
2021/08/08 02:20:48;;;;;;;2.22;0.63;;;20.90;69.20;;;;;;5077999;28;20051;-72
2021/08/08 02:23:14;;;;;;;0.93;0.60;;;20.90;69.20;;;;;;5077864;28;20044;-73
2021/08/08 02:25:40;;;;;;;0.90;0.43;;;20.90;69.20;;;;;;5077989;28;20042;-72
2021/08/08 02:28:07;;;;;;;1.55;0.50;;;20.90;69.20;;;;;;5078415;28;20056;-73
2021/08/08 02:30:36;;;;;;;1.10;0.35;;;20.90;69.20;;;;;;5078867;28;20040;-72
2021/08/08 02:33:03;;;;;;;1.55;0.63;;;20.90;69.20;;;;;;5077688;28;20356;-72
2021/08/08 02:35:29;;;;;;;1.10;0.30;;;20.90;69.20;;;;;;5077880;28;20047;-72
2021/08/08 02:37:55;;;;;;;1.02;0.40;;;20.90;69.20;;;;;;5077776;28;20348;-73
2021/08/08 02:40:21;;;;;;;0.95;0.43;;;20.90;69.20;;;;;;5077524;28;20052;-72
2021/08/08 02:42:46;;;;;;;2.00;0.50;;;20.90;69.20;;;;;;5078000;28;20055;-72
2021/08/08 02:45:12;;;;;;;2.35;0.52;;;20.90;69.20;;;;;;5078027;28;20115;-73
2021/08/08 02:47:38;;;;;;;1.58;0.68;;;20.90;69.20;;;;;;5077675;28;20359;-72
2021/08/08 02:50:05;;;;;;;1.15;0.38;;;20.90;69.20;;;;;;5077953;28;20436;-72
2021/08/08 02:52:31;;;;;;;0.95;0.40;;;20.90;69.20;;;;;;5077312;28;20447;-72
2021/08/08 02:54:57;;;;;;;1.25;0.40;;;20.90;69.20;;;;;;5077255;28;20055;-72
2021/08/08 02:57:23;;;;;;;0.98;0.43;;;20.90;69.10;;;;;;5077469;28;20044;-73
2021/08/08 02:59:49;;;;;;;0.63;0.30;;;20.90;69.20;;;;;;5077371;28;20418;-72
2021/08/08 03:02:15;;;;;;;1.00;0.50;;;20.90;69.20;;;;;;5077099;28;20355;-72
2021/08/08 03:04:40;;;;;;;2.03;0.80;;;20.90;69.20;;;;;;5077311;28;20044;-72
2021/08/08 03:07:06;;;;;;;1.23;0.47;;;20.90;69.20;;;;;;5077833;28;20094;-72
2021/08/08 03:09:32;;;;;;;2.13;0.63;;;20.90;69.20;;;;;;5077183;28;20051;-72
2021/08/08 03:11:58;;;;;;;1.48;0.43;;;20.90;69.20;;;;;;5077211;28;20036;-73
2021/08/08 03:14:24;;;;;;;1.75;0.70;;;20.80;69.20;;;;;;5077528;28;20075;-73
2021/08/08 03:16:50;;;;;;;1.65;0.57;;;20.80;69.10;;;;;;5076902;28;20064;-72
2021/08/08 03:19:17;;;;;;;1.50;0.60;;;20.80;69.10;;;;;;5077565;28;20044;-72
2021/08/08 03:21:44;;;;;;;1.17;0.50;;;20.80;69.20;;;;;;5076180;28;20043;-72
2021/08/08 03:24:10;;;;;;;1.30;0.57;;;20.80;69.10;;;;;;5076525;28;20102;-73
2021/08/08 03:26:36;;;;;;;0.98;0.32;;;20.80;69.10;;;;;;5076960;28;20041;-73
2021/08/08 03:29:02;;;;;;;1.65;0.60;;;20.90;69.20;;;;;;5076823;28;20113;-72
2021/08/08 03:31:30;;;;;;;1.40;0.50;;;20.80;69.20;;;;;;5059346;28;20070;-72
2021/08/08 03:33:56;;;;;;;1.10;0.50;;;20.80;69.10;;;;;;5076972;28;20041;-72
2021/08/08 03:36:23;;;;;;;1.23;0.50;;;20.80;69.10;;;;;;5076613;28;20166;-73
2021/08/08 03:38:49;;;;;;;1.73;0.40;;;20.80;69.10;;;;;;5077106;28;20048;-72
2021/08/08 03:41:16;;;;;;;1.35;0.50;;;20.80;69.10;;;;;;5076522;28;20052;-72
2021/08/08 03:43:41;;;;;;;0.82;0.52;;;20.80;69.10;;;;;;5076914;28;20044;-72
2021/08/08 03:46:07;;;;;;;1.77;0.40;;;20.80;69.10;;;;;;5076354;28;20040;-73
2021/08/08 03:48:33;;;;;;;1.35;0.50;;;20.80;69.10;;;;;;5076522;28;20101;-72
2021/08/08 03:50:59;;;;;;;1.08;0.50;;;20.80;69.10;;;;;;5076397;28;20063;-72
2021/08/08 03:53:25;;;;;;;0.98;0.43;;;20.80;69.10;;;;;;5076318;28;20037;-72
2021/08/08 03:55:51;;;;;;;0.45;0.20;;;20.80;69.10;;;;;;5076758;28;20051;-72
2021/08/08 03:58:17;;;;;;;1.73;0.65;;;20.80;69.20;;;;;;5076257;28;20076;-72
2021/08/08 04:00:43;;;;;;;1.55;0.40;;;20.80;69.10;;;;;;5076130;28;20101;-72
2021/08/08 04:03:09;;;;;;;0.57;0.35;;;20.80;69.10;;;;;;5075946;28;20059;-72
2021/08/08 04:05:35;;;;;;;1.15;0.50;;;20.80;69.10;;;;;;5076070;28;20045;-72
2021/08/08 04:08:03;;;;;;;1.35;0.65;;;20.80;69.10;;;;;;5075939;28;20123;-72
2021/08/08 04:10:29;;;;;;;1.15;0.55;;;20.80;69.20;;;;;;5076664;28;20118;-72
2021/08/08 04:12:55;;;;;;;0.90;0.32;;;20.80;69.20;;;;;;5075937;28;20040;-73
2021/08/08 04:15:22;;;;;;;1.17;0.60;;;20.80;69.20;;;;;;5075905;28;20054;-72
2021/08/08 04:17:48;;;;;;;1.30;0.50;;;20.80;69.20;;;;;;5076086;28;20124;-72
2021/08/08 04:20:15;;;;;;;2.58;0.40;;;20.80;69.20;;;;;;5075740;28;20047;-72
2021/08/08 04:22:41;;;;;;;1.23;0.50;;;20.80;69.20;;;;;;5075723;28;20107;-72
2021/08/08 04:25:08;;;;;;;0.85;0.52;;;20.80;69.20;;;;;;5075693;28;20051;-72
2021/08/08 04:27:33;;;;;;;0.70;0.32;;;20.80;69.20;;;;;;5075711;28;20045;-72
2021/08/08 04:30:05;;;;;;;0.75;0.50;;;20.80;69.20;;;;;;5075551;28;20048;-73
2021/08/08 04:32:31;;;;;;;2.08;0.60;;;20.80;69.20;;;;;;5075682;28;20044;-72
2021/08/08 04:34:57;;;;;;;1.13;0.50;;;20.80;69.30;;;;;;5075362;28;20131;-73
2021/08/08 04:37:23;;;;;;;1.05;0.50;;;20.80;69.30;;;;;;5075420;28;20434;-72
2021/08/08 04:39:49;;;;;;;0.80;0.50;;;20.80;69.30;;;;;;5075378;28;20067;-72
2021/08/08 04:42:16;;;;;;;1.35;0.50;;;20.80;69.30;;;;;;5075544;28;20121;-72
2021/08/08 04:44:42;;;;;;;0.82;0.30;;;20.70;69.20;;;;;;5075671;28;20040;-72
2021/08/08 04:47:07;;;;;;;1.38;0.50;;;20.80;69.30;;;;;;5075303;28;20045;-72
2021/08/08 04:49:33;;;;;;;1.15;0.45;;;20.80;69.30;;;;;;5075312;28;20119;-74
2021/08/08 04:52:02;;;;;;;1.02;0.43;;;20.80;69.30;;;;;;5075304;28;20055;-72
2021/08/08 04:54:28;;;;;;;1.17;0.40;;;20.80;69.30;;;;;;5075299;28;20040;-73
2021/08/08 04:56:54;;;;;;;1.15;0.40;;;20.70;69.20;;;;;;5075577;28;20044;-73
2021/08/08 04:59:19;;;;;;;2.55;0.70;;;20.70;69.20;;;;;;5075148;28;20390;-73
2021/08/08 05:01:45;;;;;;;0.73;0.57;;;20.70;69.30;;;;;;5075294;28;20431;-72
2021/08/08 05:04:11;;;;;;;0.60;0.40;;;20.70;69.30;;;;;;5075024;28;20048;-73
2021/08/08 05:06:37;;;;;;;1.45;0.60;;;20.80;69.30;;;;;;5074908;28;20402;-73
2021/08/08 05:09:04;;;;;;;1.13;0.50;;;20.80;69.30;;;;;;5075629;28;20127;-72
2021/08/08 05:11:31;;;;;;;1.35;0.70;;;20.80;69.30;;;;;;5074982;28;20044;-73
2021/08/08 05:13:59;;;;;;;1.52;0.40;;;20.80;69.30;;;;;;5075343;28;20131;-72
2021/08/08 05:16:25;;;;;;;2.25;0.50;;;20.70;69.30;;;;;;5075574;28;20054;-73
2021/08/08 05:18:51;;;;;;;2.10;0.60;;;20.70;69.30;;;;;;5074901;28;20071;-73
2021/08/08 05:21:17;;;;;;;1.85;0.40;;;20.80;69.40;;;;;;5075350;28;20070;-72
2021/08/08 05:23:44;;;;;;;1.98;0.65;;;20.70;69.40;;;;;;5074578;28;20071;-72
2021/08/08 05:26:10;;;;;;;2.45;0.60;;;20.70;69.30;;;;;;5075287;28;20064;-72
2021/08/08 05:28:40;;;;;;;1.40;0.75;;;20.80;69.40;;;;;;5074909;28;20046;-72
2021/08/08 05:31:06;;;;;;;1.75;0.45;;;20.70;69.30;;;;;;5074911;28;20043;-72
2021/08/08 05:33:32;;;;;;;1.15;0.73;;;20.80;69.40;;;;;;5075308;28;20036;-72
2021/08/08 05:35:58;;;;;;;1.08;0.50;;;20.80;69.40;;;;;;5075091;28;20327;-73
2021/08/08 05:38:24;;;;;;;1.25;0.63;;;20.70;69.40;;;;;;5075178;28;20048;-75
2021/08/08 05:40:50;;;;;;;1.00;0.43;;;20.70;69.40;;;;;;5074592;28;20051;-73
2021/08/08 05:43:16;;;;;;;2.85;0.80;;;20.70;69.30;;;;;;5074949;28;20115;-75
2021/08/08 05:45:46;;;;;;;4.85;0.80;;;20.70;69.30;;;;;;5076032;28;20051;-76
2021/08/08 05:48:12;;;;;;;2.75;0.93;;;20.80;69.40;;;;;;5078648;28;20037;-75
2021/08/08 05:50:38;;;;;;;3.35;0.50;;;20.80;69.50;;;;;;5078710;28;20068;-75
2021/08/08 05:53:05;;;;;;;7.03;0.90;;;20.70;69.50;;;;;;5078541;28;20051;-71
2021/08/08 05:55:31;;;;;;;5.43;1.10;;;20.70;69.60;;;;;;5078869;28;20040;-74
2021/08/08 05:58:00;;;;;;;3.42;1.10;;;20.70;69.80;;;;;;5078455;28;20157;-74
2021/08/08 06:00:26;;;;;;;4.00;1.10;;;20.80;70.00;;;;;;5078319;28;20154;-74
2021/08/08 06:02:51;;;;;;;6.05;1.63;;;20.80;70.00;;;;;;5078760;28;20063;-73
2021/08/08 06:05:17;;;;;;;5.88;1.73;;;20.80;70.10;;;;;;5078352;28;20052;-73
2021/08/08 06:07:43;;;;;;;10.65;1.88;;;20.80;70.10;;;;;;5078920;28;20060;-74
2021/08/08 06:10:09;;;;;;;7.30;1.95;;;20.80;70.30;;;;;;5078387;28;20455;-75
2021/08/08 06:12:35;;;;;;;9.30;1.55;;;20.80;70.30;;;;;;5078832;28;20351;-74
2021/08/08 06:15:01;;;;;;;10.25;2.20;;;20.80;70.20;;;;;;5078126;28;20055;-76
2021/08/08 06:17:31;;;;;;;15.68;2.42;;;20.80;70.30;;;;;;5078120;28;20044;-78
2021/08/08 06:19:57;;;;;;;13.32;2.70;;;20.80;70.60;;;;;;5078164;28;20047;-74
2021/08/08 06:22:23;;;;;;;17.80;2.80;;;20.80;70.60;;;;;;5077966;28;20040;-75
2021/08/08 06:24:49;;;;;;;13.63;3.35;;;20.80;70.90;;;;;;5079910;28;20047;-76
2021/08/08 06:27:15;;;;;;;10.50;3.33;;;20.80;71.00;;;;;;5079471;28;20055;-76
2021/08/08 06:29:40;;;;;;;16.02;3.38;;;20.80;71.20;;;;;;5078296;28;20399;-74
2021/08/08 06:32:06;;;;;;;9.93;2.65;;;20.70;71.30;;;;;;5078364;28;20095;-73
2021/08/08 06:34:32;;;;;;;13.52;3.92;;;20.70;71.40;;;;;;5082060;28;20036;-75
2021/08/08 06:36:58;;;;;;;12.90;2.95;;;20.70;71.50;;;;;;5098367;28;20118;-75
2021/08/08 06:39:24;;;;;;;10.80;3.53;;;20.70;71.60;;;;;;5098381;28;20046;-74
2021/08/08 06:41:50;;;;;;;17.33;3.25;;;20.70;72.00;;;;;;5098302;28;20476;-76
2021/08/08 06:44:15;;;;;;;16.35;3.25;;;20.70;72.10;;;;;;5098397;28;20082;-75
2021/08/08 06:46:41;;;;;;;11.93;2.80;;;20.70;72.20;;;;;;5090306;28;20045;-76
2021/08/08 06:49:07;;;;;;;8.95;3.10;;;20.70;72.10;;;;;;5077636;28;20065;-73
2021/08/08 06:51:33;;;;;;;10.57;3.30;;;20.80;72.20;;;;;;5077775;28;20089;-73
2021/08/08 06:53:59;;;;;;;13.10;3.33;;;20.80;72.30;;;;;;5080757;28;20036;-72
2021/08/08 06:56:25;;;;;;;9.88;3.55;;;20.80;72.30;;;;;;5095121;28;20044;-74
2021/08/08 06:58:51;;;;;;;12.18;3.55;;;20.70;72.40;;;;;;5088446;28;20442;-80
2021/08/08 07:01:17;;;;;;;11.43;3.45;;;20.80;72.60;;;;;;5077339;28;20105;-80
2021/08/08 07:03:43;;;;;;;15.88;3.75;;;20.80;72.60;;;;;;5077401;28;20071;-74
2021/08/08 07:06:09;;;;;;;13.60;3.22;;;20.80;72.60;;;;;;5077374;28;20072;-76
2021/08/08 07:08:35;;;;;;;19.73;4.78;;;20.80;72.50;;;;;;5077915;28;20109;-74
2021/08/08 07:11:00;;;;;;;13.80;3.35;;;20.80;73.10;;;;;;5077385;28;20044;-74
2021/08/08 07:13:26;;;;;;;15.70;3.97;;;20.80;72.50;;;;;;5077522;28;20044;-74
2021/08/08 07:15:52;;;;;;;14.80;3.38;;;20.80;72.50;;;;;;5077660;28;20329;-74
2021/08/08 07:18:18;;;;;;;18.70;3.50;;;20.80;72.60;;;;;;5077192;28;20036;-74
2021/08/08 07:20:43;;;;;;;13.75;3.38;;;20.80;72.50;;;;;;5077088;28;20064;-74
2021/08/08 07:23:10;;;;;;;10.27;3.45;;;20.80;72.40;;;;;;5077101;28;20415;-74
2021/08/08 07:25:35;;;;;;;10.35;2.72;;;20.90;72.40;;;;;;5077665;28;20072;-74
2021/08/08 07:28:01;;;;;;;10.35;3.03;;;20.90;72.40;;;;;;5077318;28;20420;-74
2021/08/08 07:30:27;;;;;;;11.00;2.97;;;20.90;72.20;;;;;;5077162;28;20040;-74
2021/08/08 07:32:53;;;;;;;14.00;2.72;;;20.90;72.40;;;;;;5078124;28;20044;-74
2021/08/08 07:35:19;;;;;;;9.02;2.58;;;20.90;72.30;;;;;;5097210;28;20039;-74
2021/08/08 07:37:44;;;;;;;10.65;2.53;;;20.90;72.30;;;;;;5097416;28;20389;-75
2021/08/08 07:40:11;;;;;;;14.25;2.78;;;20.90;72.20;;;;;;5097740;28;20111;-74
2021/08/08 07:42:37;;;;;;;10.70;2.80;;;20.90;72.30;;;;;;5097112;28;20044;-76
2021/08/08 07:45:03;;;;;;;12.10;3.22;;;20.90;72.50;;;;;;5096901;28;20173;-74
2021/08/08 07:47:29;;;;;;;15.38;3.15;;;21.00;72.50;;;;;;5096884;28;20048;-73
2021/08/08 07:49:55;;;;;;;12.25;3.63;;;21.00;72.40;;;;;;5096669;28;20043;-74
2021/08/08 07:52:20;;;;;;;15.68;2.97;;;21.00;72.30;;;;;;5096203;28;20036;-74
2021/08/08 07:54:47;;;;;;;15.02;3.05;;;21.00;72.30;;;;;;5076888;28;20103;-75
2021/08/08 07:57:13;;;;;;;13.32;2.88;;;21.00;72.20;;;;;;5076849;28;20045;-75
2021/08/08 07:59:39;;;;;;;9.43;2.55;;;21.10;72.30;;;;;;5076362;28;20040;-75
2021/08/08 08:02:05;;;;;;;8.75;2.45;;;21.10;72.30;;;;;;5080627;28;20048;-74
2021/08/08 08:04:31;;;;;;;18.75;3.65;;;21.10;72.30;;;;;;5096576;28;20115;-72
2021/08/08 08:06:57;;;;;;;11.05;2.75;;;21.10;72.40;;;;;;5096505;28;20115;-80
2021/08/08 08:09:23;;;;;;;13.07;3.58;;;21.10;72.50;;;;;;5078302;28;20101;-73
2021/08/08 08:11:49;;;;;;;16.50;3.10;;;21.10;72.40;;;;;;5096138;28;20040;-73
2021/08/08 08:14:15;;;;;;;13.50;2.85;;;21.20;72.30;;;;;;5097012;28;20036;-74
2021/08/08 08:16:40;;;;;;;12.98;2.95;;;21.20;72.30;;;;;;5096207;28;20044;-74
2021/08/08 08:19:06;;;;;;;12.88;2.50;;;21.20;72.20;;;;;;5096656;28;20105;-74
2021/08/08 08:21:32;;;;;;;14.63;2.95;;;21.20;72.10;;;;;;5092514;28;20355;-75
2021/08/08 08:23:59;;;;;;;9.73;2.67;;;21.20;71.90;;;;;;5076045;28;20119;-72
2021/08/08 08:26:24;;;;;;;11.85;2.83;;;21.30;71.80;;;;;;5076144;28;20115;-74
2021/08/08 08:28:50;;;;;;;18.48;3.38;;;21.30;71.60;;;;;;5076101;28;20052;-76
2021/08/08 08:31:16;;;;;;;13.93;2.70;;;21.30;71.70;;;;;;5087839;28;20098;-75
2021/08/08 08:33:42;;;;;;;15.02;2.72;;;21.30;71.40;;;;;;5075460;28;20037;-77
2021/08/08 08:36:07;;;;;;;13.45;3.45;;;21.30;70.70;;;;;;5085329;28;20500;-78
2021/08/08 08:38:33;;;;;;;18.50;2.90;;;21.30;70.50;;;;;;5095867;28;20051;-76
2021/08/08 08:41:03;;;;;;;17.83;3.10;;;21.30;70.50;;;;;;5095918;28;20044;-81
2021/08/08 08:43:30;;;;;;;13.90;2.90;;;21.30;70.40;;;;;;5095824;28;20119;-72
2021/08/08 08:45:56;;;;;;;18.70;2.85;;;21.20;70.40;;;;;;5081924;28;20044;-74
2021/08/08 08:48:23;;;;;;;18.00;3.42;;;21.30;70.50;;;;;;5076306;28;20090;-74
2021/08/08 08:50:53;;;;;;;28.80;3.78;;;21.20;70.60;;;;;;5075524;28;20054;-74
2021/08/08 08:53:21;;;;;;;66.05;6.53;;;21.20;70.60;;;;;;5075532;28;20044;-74
2021/08/08 08:55:47;;;;;;;27.55;3.92;;;21.20;70.70;;;;;;5075755;28;20451;-74
2021/08/08 08:58:13;;;;;;;18.85;3.10;;;21.30;71.00;;;;;;5091689;28;20039;-74
2021/08/08 09:00:41;;;;;;;16.38;3.88;;;21.30;70.90;;;;;;5095819;28;20044;-74
2021/08/08 09:03:08;;;;;;;16.00;2.72;;;21.30;70.70;;;;;;5095529;28;20401;-75
2021/08/08 09:05:34;;;;;;;24.15;3.75;;;21.30;70.70;;;;;;5095547;28;20028;-74
2021/08/08 09:07:59;;;;;;;24.10;4.13;;;21.30;70.90;;;;;;5095445;28;20040;-72
2021/08/08 09:10:26;;;;;;;22.70;4.05;;;21.30;71.00;;;;;;5094545;28;20127;-73
2021/08/08 09:13:00;;;;;;;19.10;3.65;;;21.30;71.00;;;;;;5094984;28;20036;-72
2021/08/08 09:15:34;;;;;;;14.18;3.30;;;21.40;70.80;;;;;;5095268;28;20067;-72
2021/08/08 09:18:18;;;;;;;16.95;3.15;;;21.40;70.70;;;;;;5093747;28;20119;-73
2021/08/08 09:20:45;;;;;;;20.10;3.13;;;21.40;70.50;;;;;;5094488;28;20038;-73
2021/08/08 09:23:12;;;;;;;15.63;3.10;;;21.40;71.40;;;;;;5095286;28;20044;-73
2021/08/08 09:25:49;;;;;;;14.55;3.55;;;21.30;70.90;;;;;;5095317;28;20111;-73
2021/08/08 09:28:15;;;;;;;22.38;3.10;;;21.40;71.00;;;;;;5095357;28;20044;-72
2021/08/08 09:30:42;;;;;;;12.85;2.28;;;21.30;71.10;;;;;;5095068;28;20040;-73
2021/08/08 09:33:10;;;;;;;12.05;2.95;;;21.40;71.20;;;;;;5095167;28;20123;-73
2021/08/08 09:35:39;;;;;;;16.67;3.53;;;21.40;71.20;;;;;;5093663;28;20036;-73
2021/08/08 09:38:09;;;;;;;17.92;3.35;;;21.40;71.10;;;;;;5083447;28;20043;-73
2021/08/08 09:40:37;;;;;;;8.30;2.97;;;21.40;71.10;;;;;;5092366;28;20439;-73
2021/08/08 09:43:07;;;;;;;16.67;3.38;;;21.40;71.10;;;;;;5090094;28;20101;-74
2021/08/08 09:45:40;;;;;;;11.80;2.90;;;21.40;71.00;;;;;;5083131;28;20041;-76
2021/08/08 09:48:10;;;;;;;13.73;2.90;;;21.40;71.00;;;;;;5093941;28;20036;-73
2021/08/08 09:50:37;;;;;;;15.60;2.90;;;21.40;71.10;;;;;;5081328;28;20126;-73
2021/08/08 09:53:05;;;;;;;18.77;3.08;;;21.40;71.00;;;;;;5094707;28;20036;-74
2021/08/08 09:55:38;;;;;;;13.88;2.25;;;21.40;71.00;;;;;;5095211;28;20040;-74
2021/08/08 09:58:21;;;;;;;13.07;2.40;;;21.40;71.20;;;;;;5095157;28;20051;-72
2021/08/08 10:00:56;;;;;;;12.85;2.92;;;21.40;71.00;;;;;;5094909;28;20313;-72
2021/08/08 10:03:22;;;;;;;10.00;2.15;;;21.40;69.40;;;;;;5082711;28;20119;-70
2021/08/08 10:05:48;;;;;;;18.20;2.60;;;21.40;67.80;;;;;;5074497;28;20082;-72
2021/08/08 10:08:20;;;;;;;9.73;2.67;;;21.40;68.20;;;;;;5075047;28;20048;-71
2021/08/08 10:10:47;;;;;;;9.57;2.75;;;21.40;67.00;;;;;;5074930;28;20164;-71
2021/08/08 10:13:22;;;;;;;9.45;2.38;;;21.40;65.90;;;;;;5074725;28;20044;-71
2021/08/08 10:15:52;;;;;;;12.60;2.65;;;21.40;65.30;;;;;;5074933;28;20041;-71
2021/08/08 10:18:21;;;;;;;10.75;2.22;;;21.40;65.70;;;;;;5074605;28;20036;-72
2021/08/08 10:20:47;;;;;;;11.55;2.10;;;21.40;65.50;;;;;;5074705;28;20079;-74
2021/08/08 10:23:15;;;;;;;12.55;2.60;;;21.40;65.80;;;;;;5082470;28;20065;-71
2021/08/08 10:25:46;;;;;;;11.10;2.47;;;21.40;65.70;;;;;;5074109;28;20044;-71
2021/08/08 10:28:12;;;;;;;13.93;2.72;;;21.30;65.60;;;;;;5075533;28;20032;-69
2021/08/08 10:30:39;;;;;;;11.32;2.47;;;21.30;65.60;;;;;;5074361;28;20111;-72
2021/08/08 10:33:06;;;;;;;15.27;2.50;;;21.30;65.40;;;;;;5077841;28;20040;-72
2021/08/08 10:35:39;;;;;;;13.13;2.55;;;21.30;65.60;;;;;;5078486;28;20048;-72
2021/08/08 10:38:06;;;;;;;10.20;1.95;;;21.40;66.50;;;;;;5078158;28;20047;-72
2021/08/08 10:40:32;;;;;;;10.93;2.60;;;21.30;66.90;;;;;;5077129;28;20415;-72
2021/08/08 10:43:00;;;;;;;9.50;2.63;;;21.40;67.20;;;;;;5096954;28;20059;-73
2021/08/08 10:45:32;;;;;;;13.13;2.70;;;21.30;66.90;;;;;;5098167;28;20454;-73
2021/08/08 10:48:09;;;;;;;16.45;2.92;;;21.40;67.40;;;;;;5098397;28;20051;-72
2021/08/08 10:50:42;;;;;;;11.07;2.35;;;21.40;67.70;;;;;;5097256;28;20047;-72
2021/08/08 10:53:26;;;;;;;12.15;2.63;;;21.40;68.10;;;;;;5097717;28;20051;-75
2021/08/08 10:56:12;;;;;;;13.18;3.03;;;21.40;68.30;;;;;;5081719;28;20060;-72
2021/08/08 10:58:44;;;;;;;14.50;2.58;;;21.40;68.70;;;;;;5077817;28;20040;-74
2021/08/08 11:01:22;;;;;;;18.50;3.25;;;21.40;69.10;;;;;;5077045;28;20037;-75
2021/08/08 11:04:00;;;;;;;9.98;2.50;;;21.40;69.40;;;;;;5077117;28;20079;-73
2021/08/08 11:06:28;;;;;;;17.45;3.35;;;21.40;69.70;;;;;;5077467;28;20040;-73
2021/08/08 11:08:56;;;;;;;14.13;2.78;;;21.50;69.80;;;;;;5077677;28;20048;-72
2021/08/08 11:11:26;;;;;;;18.80;2.95;;;21.50;69.70;;;;;;5095625;28;20036;-73
2021/08/08 11:13:54;;;;;;;11.70;2.40;;;21.50;69.60;;;;;;5097254;28;20036;-73
2021/08/08 11:16:21;;;;;;;12.43;2.60;;;21.50;69.70;;;;;;5097633;28;20093;-73
2021/08/08 11:18:54;;;;;;;13.80;2.47;;;21.50;69.80;;;;;;5097395;28;20044;-73
2021/08/08 11:21:21;;;;;;;9.90;2.90;;;21.50;69.80;;;;;;5097038;28;20036;-73
2021/08/08 11:23:53;;;;;;;10.80;3.17;;;21.50;69.90;;;;;;5097798;28;20470;-73
2021/08/08 11:26:19;;;;;;;11.98;2.85;;;21.50;69.90;;;;;;5097672;28;20074;-73
2021/08/08 11:29:11;;;;;;;13.00;2.67;;;21.50;70.00;;;;;;5094529;28;20063;-73
2021/08/08 11:31:39;;;;;;;7.65;2.30;;;21.50;69.90;;;;;;5091424;28;20470;-73
2021/08/08 11:34:09;;;;;;;11.95;2.28;;;21.50;70.00;;;;;;5097120;28;20040;-73
2021/08/08 11:36:37;;;;;;;14.40;3.22;;;21.50;70.20;;;;;;5096941;28;20123;-74
2021/08/08 11:39:09;;;;;;;16.55;3.33;;;21.60;70.40;;;;;;5096854;28;20043;-74
2021/08/08 11:41:35;;;;;;;13.43;3.63;;;21.50;70.60;;;;;;5092855;28;20040;-73
2021/08/08 11:44:05;;;;;;;21.27;3.47;;;21.60;70.60;;;;;;5095855;28;20046;-73
2021/08/08 11:46:31;;;;;;;23.15;3.83;;;21.60;71.20;;;;;;5096966;28;20059;-72
2021/08/08 11:48:57;;;;;;;20.88;4.32;;;21.60;70.50;;;;;;5096767;28;20036;-73
2021/08/08 11:51:23;;;;;;;18.60;3.80;;;21.60;70.30;;;;;;5091567;28;20064;-73
2021/08/08 11:53:54;;;;;;;21.05;3.50;;;21.60;70.30;;;;;;5076115;28;20052;-73
2021/08/08 11:56:28;;;;;;;19.63;3.92;;;21.60;70.10;;;;;;5077899;28;20067;-73
2021/08/08 11:58:55;;;;;;;20.25;3.90;;;21.60;69.50;;;;;;5112434;28;20055;-73
2021/08/08 12:01:25;;;;;;;17.90;3.60;;;21.60;69.30;;;;;;5116766;28;20425;-72
2021/08/08 12:03:52;;;;;;;24.15;3.53;;;21.50;69.60;;;;;;5097674;28;20054;-72
2021/08/08 12:06:22;;;;;;;16.33;3.75;;;21.50;69.30;;;;;;5096472;28;20107;-72
2021/08/08 12:08:49;;;;;;;16.50;3.38;;;21.50;69.20;;;;;;5096554;28;20036;-72
2021/08/08 12:11:15;;;;;;;17.42;3.88;;;21.50;68.90;;;;;;5096382;28;20044;-72
2021/08/08 12:13:41;;;;;;;14.20;3.50;;;21.50;68.70;;;;;;5096337;28;20055;-72
2021/08/08 12:16:11;;;;;;;16.23;4.07;;;21.50;68.90;;;;;;5096208;28;20044;-72
2021/08/08 12:18:37;;;;;;;19.80;3.80;;;21.50;69.00;;;;;;5096026;28;20036;-72
2021/08/08 12:21:14;;;;;;;21.55;4.13;;;21.50;68.80;;;;;;5095799;28;20119;-71
2021/08/08 12:23:40;;;;;;;12.50;3.40;;;21.50;68.30;;;;;;5096086;28;20435;-73
2021/08/08 12:26:06;;;;;;;17.40;4.15;;;21.50;67.60;;;;;;5096033;28;20051;-71
2021/08/08 12:28:32;;;;;;;12.82;4.00;;;21.50;67.50;;;;;;5096142;28;20060;-72
2021/08/08 12:31:10;;;;;;;15.07;3.17;;;21.50;67.60;;;;;;5077174;28;20067;-71
2021/08/08 12:33:37;;;;;;;21.70;4.50;;;21.50;67.60;;;;;;5075572;28;20036;-72
2021/08/08 12:36:13;;;;;;;25.48;4.40;;;21.50;67.70;;;;;;5075610;28;20040;-71
2021/08/08 12:38:50;;;;;;;14.10;3.60;;;21.50;67.60;;;;;;5075215;28;20123;-71
2021/08/08 12:41:30;;;;;;;16.92;4.18;;;21.50;67.70;;;;;;5075379;28;20337;-73
2021/08/08 12:44:01;;;;;;;20.73;4.63;;;21.50;67.40;;;;;;5075780;28;20040;-73